Time;durP1;ratioP1;P1;durP2;ratioP2;P2;SDS_P1;SDS_P2;PMS_P1;PMS_P2;Temp;Humidity;BMP_temperature;BMP_pressure;BME280_temperature;BME280_humidity;BME280_pressure;Samples;Min_cycle;Max_cycle;Signal;HPM_P1;HPM_P2
2024/01/06 00:00:10;;;;;;;;;16.33;15.00;;;;;7.41;79.58;100567.25;5078388;28;45430;-54
2024/01/06 00:02:36;;;;;;;;;17.00;17.00;;;;;7.43;79.60;100558.34;5071993;28;45366;-53
2024/01/06 00:05:01;;;;;;;;;19.33;17.67;;;;;7.47;79.60;100568.78;5061456;28;68590;-54
2024/01/06 00:07:26;;;;;;;;;15.67;14.00;;;;;7.53;79.63;100571.19;5064383;28;71946;-53
2024/01/06 00:09:52;;;;;;;;;8.00;6.67;;;;;7.58;79.56;100563.91;5075668;28;45445;-54
2024/01/06 00:12:18;;;;;;;;;13.33;10.67;;;;;7.63;79.65;100577.84;5046673;28;45494;-53
2024/01/06 00:14:45;;;;;;;;;16.33;14.00;;;;;7.68;79.79;100570.56;5070688;28;45356;-53
2024/01/06 00:17:11;;;;;;;;;23.67;15.33;;;;;7.74;79.63;100572.06;5077001;28;45454;-54
2024/01/06 00:19:36;;;;;;;;;14.67;14.67;;;;;7.78;79.38;100574.56;5077508;28;45624;-55
2024/01/06 00:22:01;;;;;;;;;15.00;13.67;;;;;7.81;79.12;100575.31;5060306;28;67314;-53
2024/01/06 00:24:27;;;;;;;;;12.67;12.67;;;;;7.79;79.14;100575.41;5060587;28;45350;-52
2024/01/06 00:26:52;;;;;;;;;17.00;11.33;;;;;7.75;79.15;100576.47;5073326;28;45840;-52
2024/01/06 00:29:18;;;;;;;;;17.67;17.33;;;;;7.73;79.25;100580.94;5073518;28;64937;-52
2024/01/06 00:31:43;;;;;;;;;22.00;19.33;;;;;7.72;79.14;100582.75;5057023;28;53611;-52
2024/01/06 00:34:08;;;;;;;;;17.33;15.33;;;;;7.73;79.44;100580.94;5073807;28;45819;-53
2024/01/06 00:36:34;;;;;;;;;19.00;16.00;;;;;7.72;79.27;100585.38;5072838;28;69552;-54
2024/01/06 00:38:59;;;;;;;;;17.67;16.00;;;;;7.72;79.31;100581.88;5064070;28;55465;-53
2024/01/06 00:41:24;;;;;;;;;18.33;16.00;;;;;7.69;79.21;100585.53;5078000;28;45423;-53
2024/01/06 00:43:50;;;;;;;;;11.00;11.00;;;;;7.67;79.47;100578.56;5060187;28;49561;-54
2024/01/06 00:46:15;;;;;;;;;14.33;12.00;;;;;7.65;79.38;100581.25;5077455;28;73354;-53
2024/01/06 00:48:41;;;;;;;;;14.00;14.00;;;;;7.61;79.53;100583.19;5077498;28;70811;-54
2024/01/06 00:51:06;;;;;;;;;23.33;17.67;;;;;7.58;79.56;100591.25;5072514;28;45324;-53
2024/01/06 00:53:31;;;;;;;;;15.33;14.00;;;;;7.53;79.57;100595.00;5073384;28;70195;-54
2024/01/06 00:55:57;;;;;;;;;13.33;12.00;;;;;7.48;79.33;100589.03;5070048;28;74378;-52
2024/01/06 00:58:22;;;;;;;;;15.00;13.00;;;;;7.40;79.59;100592.84;5076236;28;72646;-52
2024/01/06 01:00:47;;;;;;;;;15.00;14.00;;;;;7.35;79.89;100593.97;5036154;28;63162;-53
2024/01/06 01:03:13;;;;;;;;;16.33;14.33;;;;;7.33;79.94;100598.47;5071944;28;45406;-51
2024/01/06 01:05:38;;;;;;;;;13.00;13.00;;;;;7.29;80.14;100595.06;5071241;28;75676;-54
2024/01/06 01:08:03;;;;;;;;;11.33;11.33;;;;;7.27;80.13;100603.09;5064031;28;72288;-53
2024/01/06 01:10:29;;;;;;;;;13.33;11.33;;;;;7.24;80.25;100599.69;5056951;28;45395;-53
2024/01/06 01:12:54;;;;;;;;;14.00;12.00;;;;;7.22;80.33;100598.88;5075297;28;66114;-53
2024/01/06 01:15:19;;;;;;;;;13.33;13.33;;;;;7.20;80.51;100608.66;5065227;28;72463;-53
2024/01/06 01:17:45;;;;;;;;;13.00;11.33;;;;;7.19;80.63;100614.88;5061966;28;49977;-53
2024/01/06 01:20:10;;;;;;;;;12.00;11.00;;;;;7.15;80.63;100614.13;5051472;28;45830;-52
2024/01/06 01:22:36;;;;;;;;;11.67;11.33;;;;;7.12;80.60;100615.09;5065776;28;45601;-53
2024/01/06 01:25:05;;;;;;;;;11.67;11.67;;;;;7.07;80.88;100617.06;5072303;28;73931;-54
2024/01/06 01:27:30;;;;;;;;;12.33;10.67;;;;;7.03;80.66;100617.25;5072342;28;45425;-54
2024/01/06 01:29:56;;;;;;;;;16.00;12.00;;;;;7.02;80.82;100623.47;5076915;28;45339;-51
2024/01/06 01:32:21;;;;;;;;;15.00;13.67;;;;;7.02;81.02;100634.88;5076140;28;67440;-53
2024/01/06 01:34:46;;;;;;;;;14.00;12.00;;;;;7.01;81.00;100629.66;5068611;28;46236;-50
2024/01/06 01:37:11;;;;;;;;;12.67;12.67;;;;;6.99;81.27;100635.00;5065605;28;72084;-52
2024/01/06 01:39:37;;;;;;;;;12.00;9.33;;;;;6.97;81.24;100630.72;5076330;28;69312;-53
2024/01/06 01:42:03;;;;;;;;;14.00;9.33;;;;;6.94;81.15;100626.38;5067327;28;45304;-52
2024/01/06 01:44:28;;;;;;;;;14.00;11.33;;;;;6.94;81.44;100634.31;5075716;28;45483;-54
2024/01/06 01:46:54;;;;;;;;;14.33;10.67;;;;;6.91;81.44;100637.94;5060490;28;71593;-53
2024/01/06 01:49:20;;;;;;;;;13.00;9.67;;;;;6.91;81.70;100635.31;5060105;28;68290;-53
2024/01/06 01:51:46;;;;;;;;;9.67;9.67;;;;;6.91;81.44;100637.06;5075561;28;45585;-52
2024/01/06 01:54:11;;;;;;;;;15.67;14.67;;;;;6.89;81.59;100645.06;5079351;28;74802;-52
2024/01/06 01:56:39;;;;;;;;;11.33;8.67;;;;;6.90;81.91;100648.59;5072676;28;45465;-53
2024/01/06 01:59:06;;;;;;;;;9.67;7.33;;;;;6.89;81.87;100644.22;5073462;28;45428;-53
2024/01/06 02:01:32;;;;;;;;;10.33;7.33;;;;;6.88;81.78;100645.13;5079859;28;45540;-54
2024/01/06 02:03:58;;;;;;;;;11.00;11.00;;;;;6.87;81.76;100644.28;5076948;28;46046;-53
2024/01/06 02:06:23;;;;;;;;;9.33;9.33;;;;;6.86;81.82;100650.47;5055299;28;45364;-53
2024/01/06 02:08:48;;;;;;;;;7.00;6.67;;;;;6.85;82.16;100650.53;5060333;28;69015;-52
2024/01/06 02:11:14;;;;;;;;;7.33;7.33;;;;;6.84;82.08;100656.75;5079914;28;67062;-51
2024/01/06 02:13:39;;;;;;;;;7.33;7.33;;;;;6.81;82.32;100652.44;5079855;28;75743;-53
2024/01/06 02:16:05;;;;;;;;;9.00;7.67;;;;;6.79;82.14;100657.78;5059995;28;65599;-53
2024/01/06 02:18:33;;;;;;;;;9.00;7.33;;;;;6.81;82.32;100659.50;5054038;28;45458;-52
2024/01/06 02:21:01;;;;;;;;;10.00;8.33;;;;;6.84;82.10;100662.88;5063613;28;45406;-53
2024/01/06 02:23:27;;;;;;;;;6.67;6.67;;;;;6.86;82.11;100658.41;5060123;28;46108;-51
2024/01/06 02:25:52;;;;;;;;;9.33;8.00;;;;;6.86;82.19;100665.50;5078911;28;45433;-52
2024/01/06 02:28:18;;;;;;;;;5.00;5.00;;;;;6.84;82.21;100668.16;5059169;28;45279;-53
2024/01/06 02:30:43;;;;;;;;;7.67;6.67;;;;;6.83;82.19;100676.16;5065259;28;70474;-53
2024/01/06 02:33:08;;;;;;;;;6.67;6.67;;;;;6.84;82.32;100669.97;5080117;28;46180;-50
2024/01/06 02:35:34;;;;;;;;;6.33;6.33;;;;;6.83;82.44;100681.44;5059661;28;72009;-52
2024/01/06 02:38:00;;;;;;;;;10.50;9.00;;;;;6.85;82.46;100679.63;5037661;28;45473;-51
2024/01/06 02:40:26;;;;;;;;;12.00;10.33;;;;;6.89;82.53;100689.16;5070709;28;45609;-53
2024/01/06 02:42:51;;;;;;;;;9.67;9.67;;;;;6.93;82.38;100683.69;5067264;28;46132;-51
2024/01/06 02:45:16;;;;;;;;;10.00;7.67;;;;;6.99;82.24;100692.31;5073213;28;71244;-52
2024/01/06 02:47:41;;;;;;;;;7.33;7.33;;;;;7.00;82.23;100692.28;5067224;28;60512;-53
2024/01/06 02:50:07;;;;;;;;;12.33;8.33;;;;;6.99;82.06;100695.84;5071820;28;66653;-55
2024/01/06 02:52:32;;;;;;;;;10.33;9.33;;;;;6.95;81.85;100692.44;5072751;28;45660;-53
2024/01/06 02:54:58;;;;;;;;;14.00;11.33;;;;;6.91;81.99;100693.47;5073662;28;56952;-53
2024/01/06 02:57:23;;;;;;;;;15.00;7.33;;;;;6.90;82.30;100693.53;5068136;28;45510;-53
2024/01/06 02:59:48;;;;;;;;;13.33;10.33;;;;;6.89;82.28;100697.09;5073072;28;65701;-54
2024/01/06 03:02:14;;;;;;;;;11.00;9.67;;;;;6.87;82.03;100707.72;5078830;28;65241;-53
2024/01/06 03:04:39;;;;;;;;;12.00;12.00;;;;;6.84;82.07;100705.19;5073482;28;53745;-54
2024/01/06 03:07:04;;;;;;;;;10.67;10.67;;;;;6.85;82.37;100706.91;5071961;28;68800;-53
2024/01/06 03:09:30;;;;;;;;;11.00;11.00;;;;;6.89;82.55;100703.22;5051834;28;45451;-54
2024/01/06 03:11:55;;;;;;;;;11.00;8.67;;;;;6.97;82.35;100708.25;5078814;28;47790;-53
2024/01/06 03:14:21;;;;;;;;;14.67;13.00;;;;;7.01;82.27;100709.00;5066501;28;45677;-54
2024/01/06 03:16:46;;;;;;;;;8.33;8.33;;;;;7.03;82.23;100709.81;5079679;28;45390;-51
2024/01/06 03:19:11;;;;;;;;;10.00;8.67;;;;;7.07;82.29;100711.44;5065116;28;69232;-53
2024/01/06 03:21:37;;;;;;;;;10.00;10.00;;;;;7.09;81.89;100710.47;5071123;28;45208;-52
2024/01/06 03:24:04;;;;;;;;;18.00;11.67;;;;;7.15;81.99;100717.28;5061814;28;74366;-55
2024/01/06 03:26:29;;;;;;;;;12.33;8.33;;;;;7.17;82.11;100714.59;5070900;28;45399;-54
2024/01/06 03:28:54;;;;;;;;;14.00;10.00;;;;;7.21;82.05;100717.06;5073511;28;68742;-53
2024/01/06 03:31:22;;;;;;;;;11.67;9.67;;;;;7.25;81.88;100716.03;5068204;28;46936;-54
2024/01/06 03:33:47;;;;;;;;;12.00;11.67;;;;;7.29;81.84;100717.63;5040911;28;45486;-54
2024/01/06 03:36:13;;;;;;;;;13.00;10.33;;;;;7.32;81.81;100721.94;5066317;28;63477;-53
2024/01/06 03:38:38;;;;;;;;;12.33;11.00;;;;;7.35;81.71;100724.47;5046060;28;45390;-55
2024/01/06 03:41:03;;;;;;;;;11.00;11.00;;;;;7.37;81.44;100725.28;5073498;28;65717;-53
2024/01/06 03:43:29;;;;;;;;;12.67;10.33;;;;;7.37;81.31;100725.28;5073401;28;66042;-54
2024/01/06 03:45:55;;;;;;;;;9.33;8.00;;;;;7.37;81.35;100725.28;5069595;28;68301;-51
2024/01/06 03:48:20;;;;;;;;;10.33;8.33;;;;;7.40;81.11;100729.59;5078786;28;45666;-54
2024/01/06 03:50:46;;;;;;;;;7.33;7.33;;;;;7.40;81.08;100730.44;5078026;28;75534;-54
2024/01/06 03:53:11;;;;;;;;;12.00;7.67;;;;;7.42;81.24;100727.78;5073756;28;45415;-53
2024/01/06 03:55:36;;;;;;;;;12.67;10.33;;;;;7.42;81.28;100731.28;5071999;28;65049;-54
2024/01/06 03:58:02;;;;;;;;;13.33;8.00;;;;;7.43;81.06;100729.47;5069933;28;61833;-50
2024/01/06 04:00:27;;;;;;;;;10.00;7.67;;;;;7.45;80.98;100739.09;5079071;28;45336;-54
2024/01/06 04:02:52;;;;;;;;;13.00;11.33;;;;;7.45;80.89;100738.22;5070789;28;73119;-53
2024/01/06 04:05:18;;;;;;;;;13.00;11.67;;;;;7.46;80.72;100734.66;5065894;28;69390;-53
2024/01/06 04:07:43;;;;;;;;;11.67;11.33;;;;;7.45;80.62;100741.72;5078310;28;69894;-53
2024/01/06 04:10:09;;;;;;;;;11.33;10.33;;;;;7.45;80.68;100740.88;5060322;28;46235;-50
2024/01/06 04:12:34;;;;;;;;;10.00;10.00;;;;;7.47;80.70;100735.53;5060008;28;71149;-54
2024/01/06 04:14:59;;;;;;;;;7.33;7.00;;;;;7.47;80.94;100740.81;5074615;28;64846;-50
2024/01/06 04:17:26;;;;;;;;;13.33;11.67;;;;;7.49;81.00;100752.22;5053706;28;69968;-51
2024/01/06 04:19:52;;;;;;;;;9.67;8.33;;;;;7.50;80.79;100746.00;5076480;28;46352;-54
2024/01/06 04:22:17;;;;;;;;;10.00;7.67;;;;;7.51;80.77;100747.72;5071945;28;72937;-54
2024/01/06 04:24:42;;;;;;;;;11.00;10.67;;;;;7.50;80.80;100748.66;5061929;28;60119;-51
2024/01/06 04:27:08;;;;;;;;;9.00;9.00;;;;;7.50;80.71;100748.66;5071819;28;45554;-55
2024/01/06 04:29:33;;;;;;;;;6.00;6.00;;;;;7.48;80.62;100753.13;5052090;28;45976;-53
2024/01/06 04:31:58;;;;;;;;;11.00;8.33;;;;;7.49;80.64;100749.56;5073127;28;73208;-50
2024/01/06 04:34:24;;;;;;;;;11.33;11.00;;;;;7.46;80.63;100758.50;5078568;28;47486;-53
2024/01/06 04:36:50;;;;;;;;;9.33;7.67;;;;;7.48;80.87;100761.06;5077138;28;70187;-53
2024/01/06 04:39:15;;;;;;;;;16.00;12.00;;;;;7.50;80.85;100767.19;5073564;28;46229;-51
2024/01/06 04:41:40;;;;;;;;;15.00;11.67;;;;;7.50;80.86;100756.59;5075008;28;71744;-52
2024/01/06 04:44:06;;;;;;;;;4.00;2.00;;;;;7.50;81.10;100765.38;5066398;28;68278;-54
2024/01/06 04:46:31;;;;;;;;;13.67;9.67;;;;;7.50;80.95;100765.38;5075051;28;70225;-51
2024/01/06 04:48:57;;;;;;;;;6.33;6.33;;;;;7.52;81.22;100768.84;5066336;28;46196;-54
2024/01/06 04:51:22;;;;;;;;;13.33;10.00;;;;;7.52;81.06;100768.84;5074951;28;57462;-51
2024/01/06 04:53:47;;;;;;;;;13.67;12.33;;;;;7.55;80.95;100770.53;5054809;28;45668;-53
2024/01/06 04:56:13;;;;;;;;;13.00;13.00;;;;;7.56;80.92;100777.53;5072988;28;66176;-51
2024/01/06 04:58:38;;;;;;;;;16.00;13.00;;;;;7.57;80.82;100781.91;5081442;28;46934;-54
2024/01/06 05:01:04;;;;;;;;;14.67;13.00;;;;;7.57;80.77;100784.56;5060063;28;45374;-53
2024/01/06 05:03:29;;;;;;;;;14.67;13.00;;;;;7.58;80.88;100773.91;5062499;28;45455;-54
2024/01/06 05:05:55;;;;;;;;;14.00;14.00;;;;;7.59;80.90;100782.72;5060242;28;45666;-53
2024/01/06 05:08:22;;;;;;;;;14.67;13.00;;;;;7.60;81.15;100785.31;5077793;28;58115;-53
2024/01/06 05:10:47;;;;;;;;;13.00;10.67;;;;;7.62;81.06;100786.09;5069158;28;45376;-54
2024/01/06 05:13:13;;;;;;;;;14.33;11.67;;;;;7.62;80.96;100790.53;5060011;28;45382;-54
2024/01/06 05:15:38;;;;;;;;;11.00;8.00;;;;;7.62;80.80;100793.19;5079884;28;66732;-50
2024/01/06 05:18:04;;;;;;;;;16.00;12.00;;;;;7.59;80.82;100788.00;5064602;28;45903;-53
2024/01/06 05:20:29;;;;;;;;;12.00;12.00;;;;;7.55;80.66;100786.41;5063110;28;45920;-54
2024/01/06 05:22:54;;;;;;;;;10.00;10.00;;;;;7.47;80.67;100793.75;5068786;28;70298;-52
2024/01/06 05:25:20;;;;;;;;;7.67;5.67;;;;;7.37;80.62;100793.25;5070344;28;70862;-52
2024/01/06 05:27:45;;;;;;;;;11.67;10.33;;;;;7.28;80.97;100795.28;5059720;28;47566;-54
2024/01/06 05:30:11;;;;;;;;;14.67;11.33;;;;;7.20;81.20;100789.41;5079693;28;45532;-50
2024/01/06 05:32:37;;;;;;;;;9.33;9.33;;;;;7.13;81.22;100798.47;5078506;28;45395;-54
2024/01/06 05:35:03;;;;;;;;;9.67;9.67;;;;;7.07;81.37;100796.06;5049131;28;45369;-51
2024/01/06 05:37:29;;;;;;;;;9.67;8.67;;;;;7.02;81.68;100803.31;5063153;28;45308;-53
2024/01/06 05:39:54;;;;;;;;;11.67;10.00;;;;;6.98;81.91;100796.41;5078434;28;73055;-53
2024/01/06 05:42:20;;;;;;;;;7.33;7.33;;;;;6.95;82.33;100802.66;5069800;28;45703;-54
2024/01/06 05:44:45;;;;;;;;;11.33;10.67;;;;;6.91;82.12;100806.31;5069967;28;45329;-53
2024/01/06 05:47:10;;;;;;;;;13.67;9.00;;;;;6.86;82.33;100803.84;5049849;28;73589;-51
2024/01/06 05:49:36;;;;;;;;;14.33;11.33;;;;;6.83;82.73;100800.44;5050083;28;71458;-52
2024/01/06 05:52:01;;;;;;;;;14.33;12.00;;;;;6.78;82.76;100797.97;5079741;28;69154;-54
2024/01/06 05:54:26;;;;;;;;;12.67;11.67;;;;;6.74;82.77;100804.25;5081151;28;45347;-54
2024/01/06 05:56:52;;;;;;;;;6.33;6.33;;;;;6.71;83.09;100807.00;5056722;28;55989;-51
2024/01/06 05:59:17;;;;;;;;;8.00;8.00;;;;;6.68;83.18;100809.75;5051279;28;71211;-53
2024/01/06 06:01:43;;;;;;;;;11.00;8.67;;;;;6.64;83.19;100813.41;5044327;28;45371;-53
2024/01/06 06:04:09;;;;;;;;;8.33;7.33;;;;;6.60;82.98;100821.44;5057911;28;45970;-54
2024/01/06 06:06:34;;;;;;;;;11.00;6.67;;;;;6.58;83.31;100820.63;5049425;28;46221;-54
2024/01/06 06:09:00;;;;;;;;;9.67;9.67;;;;;6.54;83.83;100821.63;5076267;28;72151;-54
2024/01/06 06:11:25;;;;;;;;;12.00;10.33;;;;;6.52;83.95;100831.41;5062856;28;66764;-54
2024/01/06 06:13:51;;;;;;;;;10.33;7.33;;;;;6.50;84.00;100832.38;5066800;28;67281;-53
2024/01/06 06:16:16;;;;;;;;;12.67;9.00;;;;;6.50;84.29;100846.44;5074337;28;74561;-54
2024/01/06 06:18:41;;;;;;;;;7.00;5.67;;;;;6.50;84.22;100842.94;5078858;28;71922;-54
2024/01/06 06:21:07;;;;;;;;;11.67;9.33;;;;;6.51;84.39;100844.69;5059526;28;45426;-53
2024/01/06 06:23:33;;;;;;;;;9.33;7.67;;;;;6.55;84.55;100852.44;5071344;28;66004;-52
2024/01/06 06:25:59;;;;;;;;;12.33;9.67;;;;;6.61;84.47;100857.53;5061236;28;46743;-51
2024/01/06 06:28:25;;;;;;;;;12.33;11.00;;;;;6.67;84.14;100861.75;5070942;28;45479;-51
2024/01/06 06:30:50;;;;;;;;;11.00;8.33;;;;;6.73;84.38;100865.97;5078416;28;45443;-51
2024/01/06 06:33:17;;;;;;;;;11.67;9.33;;;;;6.80;84.12;100867.50;5057890;28;45452;-53
2024/01/06 06:35:42;;;;;;;;;12.00;12.00;;;;;6.88;83.91;100876.06;5074337;28;47132;-51
2024/01/06 06:38:07;;;;;;;;;15.00;10.00;;;;;6.91;83.72;100881.22;5062671;28;45457;-51
2024/01/06 06:40:33;;;;;;;;;6.33;6.33;;;;;6.97;83.77;100876.66;5072343;28;60853;-51
2024/01/06 06:42:58;;;;;;;;;9.67;9.67;;;;;7.01;83.53;100881.78;5071303;28;53062;-53
2024/01/06 06:45:23;;;;;;;;;9.67;9.33;;;;;7.06;83.42;100879.84;5076019;28;74654;-51
2024/01/06 06:47:50;;;;;;;;;15.33;11.00;;;;;7.09;83.13;100885.03;5071880;28;45436;-53
2024/01/06 06:50:19;;;;;;;;;10.67;8.00;;;;;7.12;83.06;100890.22;5064376;28;68256;-50
2024/01/06 06:52:46;;;;;;;;;12.00;9.00;;;;;7.14;82.97;100892.81;5078587;28;45505;-50
2024/01/06 06:55:11;;;;;;;;;14.00;12.00;;;;;7.17;82.86;100891.84;5071506;28;45520;-53
2024/01/06 06:57:36;;;;;;;;;18.33;13.33;;;;;7.18;82.86;100899.72;5067366;28;45416;-54
2024/01/06 07:00:02;;;;;;;;;14.67;12.33;;;;;7.20;82.53;100900.53;5008803;28;1127287;-53
2024/01/06 07:02:28;;;;;;;;;13.67;8.67;;;;;7.21;82.61;100909.31;5052355;28;45508;-51
2024/01/06 07:04:53;;;;;;;;;19.33;15.00;;;;;7.21;82.31;100907.56;5070600;28;74745;-53
2024/01/06 07:07:18;;;;;;;;;8.67;8.67;;;;;7.21;82.44;100907.56;5074232;28;46030;-53
2024/01/06 07:09:44;;;;;;;;;10.67;10.00;;;;;7.20;82.32;100907.63;5056790;28;45597;-54
2024/01/06 07:12:09;;;;;;;;;14.00;12.67;;;;;7.21;82.10;100914.63;5078619;28;69320;-54
2024/01/06 07:14:34;;;;;;;;;15.00;11.33;;;;;7.22;82.14;100919.00;5069994;28;75333;-54
2024/01/06 07:17:00;;;;;;;;;16.00;13.00;;;;;7.23;82.15;100929.53;5078431;28;69294;-54
2024/01/06 07:19:25;;;;;;;;;12.33;12.00;;;;;7.25;82.32;100932.16;5047209;28;45391;-54
2024/01/06 07:21:50;;;;;;;;;15.33;11.67;;;;;7.26;82.00;100936.50;5076509;28;62989;-53
2024/01/06 07:24:16;;;;;;;;;16.33;9.00;;;;;7.26;82.05;100932.09;5076394;28;74583;-52
2024/01/06 07:26:41;;;;;;;;;14.33;11.33;;;;;7.26;81.72;100939.13;5046690;28;45458;-54
2024/01/06 07:29:08;;;;;;;;;11.33;7.33;;;;;7.23;81.68;100940.09;5077376;28;69236;-54
2024/01/06 07:31:33;;;;;;;;;11.00;9.33;;;;;7.24;81.64;100951.56;5057077;28;45349;-54
2024/01/06 07:33:59;;;;;;;;;12.33;11.33;;;;;7.23;81.66;100942.75;5068276;28;46102;-53
2024/01/06 07:36:24;;;;;;;;;10.67;9.33;;;;;7.24;81.52;100959.50;5067927;28;45408;-54
2024/01/06 07:38:51;;;;;;;;;12.00;10.00;;;;;7.25;81.34;100959.44;5078025;28;66014;-53
2024/01/06 07:41:17;;;;;;;;;9.00;7.33;;;;;7.25;81.30;100962.09;5075565;28;45569;-54
2024/01/06 07:43:42;;;;;;;;;8.33;8.33;;;;;7.25;81.29;100962.09;5072926;28;45417;-50
2024/01/06 07:46:09;;;;;;;;;7.00;6.33;;;;;7.25;81.44;100967.38;5058803;28;45415;-52
2024/01/06 07:48:35;;;;;;;;;10.67;9.67;;;;;7.27;81.41;100968.22;5075108;28;45513;-54
2024/01/06 07:51:01;;;;;;;;;7.00;7.00;;;;;7.26;81.22;100970.88;5078701;28;45441;-53
2024/01/06 07:53:26;;;;;;;;;12.67;7.67;;;;;7.26;81.29;100974.41;5066082;28;45454;-52
2024/01/06 07:55:51;;;;;;;;;8.67;7.67;;;;;7.25;81.15;100975.31;5070887;28;72857;-53
2024/01/06 07:58:17;;;;;;;;;7.67;6.00;;;;;7.26;81.13;100971.78;5073041;28;63104;-54
2024/01/06 08:00:42;;;;;;;;;11.00;8.67;;;;;7.27;81.09;100977.91;5078292;28;68768;-53
2024/01/06 08:03:07;;;;;;;;;7.00;5.00;;;;;7.27;80.69;100973.50;5046801;28;67531;-54
2024/01/06 08:05:33;;;;;;;;;7.00;7.00;;;;;7.30;80.98;100985.78;5075726;28;72204;-54
2024/01/06 08:07:58;;;;;;;;;9.67;9.67;;;;;7.31;80.75;100994.56;5060691;28;45406;-51
2024/01/06 08:10:23;;;;;;;;;6.00;5.67;;;;;7.30;80.36;100999.00;5069040;28;66970;-54
2024/01/06 08:12:49;;;;;;;;;9.33;9.33;;;;;7.30;80.24;100999.00;5054633;28;47140;-53
2024/01/06 08:15:14;;;;;;;;;5.00;5.00;;;;;7.29;79.87;101003.41;5067083;28;73740;-52
2024/01/06 08:17:40;;;;;;;;;6.33;5.67;;;;;7.31;80.18;101002.50;5053872;28;46250;-54
2024/01/06 08:20:09;;;;;;;;;6.00;6.00;;;;;7.30;80.03;101009.59;5069385;28;45409;-54
2024/01/06 08:22:34;;;;;;;;;6.67;6.67;;;;;7.29;79.77;101011.34;5062457;28;45399;-53
2024/01/06 08:24:59;;;;;;;;;6.00;5.67;;;;;7.31;79.63;101013.09;5055991;28;59617;-54
2024/01/06 08:27:25;;;;;;;;;5.00;5.00;;;;;7.34;79.65;101023.56;5058590;28;45567;-51
2024/01/06 08:29:50;;;;;;;;;5.00;5.00;;;;;7.34;79.79;101021.81;5047841;28;63561;-53
2024/01/06 08:32:16;;;;;;;;;7.33;6.00;;;;;7.37;79.24;101026.13;5058819;28;46031;-54
2024/01/06 08:34:41;;;;;;;;;6.33;6.33;;;;;7.39;79.37;101024.28;5074862;28;45332;-53
2024/01/06 08:37:07;;;;;;;;;12.33;10.33;;;;;7.38;79.23;101028.72;5072931;28;45636;-54
2024/01/06 08:39:32;;;;;;;;;5.33;5.33;;;;;7.37;79.10;101028.78;5045523;28;45312;-53
2024/01/06 08:41:58;;;;;;;;;4.00;4.00;;;;;7.35;78.89;101026.16;5066839;28;46062;-54
2024/01/06 08:44:23;;;;;;;;;5.67;4.33;;;;;7.36;78.76;101029.69;5074726;28;45394;-51
2024/01/06 08:46:49;;;;;;;;;4.00;2.00;;;;;7.38;78.88;101028.72;5056682;28;45672;-52
2024/01/06 08:49:14;;;;;;;;;8.00;5.67;;;;;7.41;79.26;101039.19;5065492;28;64969;-54
2024/01/06 08:51:39;;;;;;;;;5.00;5.00;;;;;7.41;78.70;101044.47;5063717;28;75665;-54
2024/01/06 08:54:05;;;;;;;;;3.00;3.00;;;;;7.42;78.86;101050.66;5076816;28;72162;-54
2024/01/06 08:56:31;;;;;;;;;6.67;6.67;;;;;7.42;78.47;101051.50;5071820;28;45410;-53
2024/01/06 08:58:57;;;;;;;;;6.67;4.67;;;;;7.43;78.38;101055.00;5039633;28;45688;-53
2024/01/06 09:01:22;;;;;;;;;5.33;4.00;;;;;7.44;78.23;101056.75;5051953;28;61120;-57
2024/01/06 09:03:49;;;;;;;;;5.33;4.67;;;;;7.44;77.60;101065.56;5043377;28;45420;-54
2024/01/06 09:06:14;;;;;;;;;4.67;4.67;;;;;7.46;77.90;101062.88;5017891;28;45677;-53
2024/01/06 09:08:40;;;;;;;;;4.00;4.00;;;;;7.50;77.81;101068.94;5016077;28;54538;-51
2024/01/06 09:11:05;;;;;;;;;4.67;2.33;;;;;7.55;77.90;101064.34;5024893;28;45431;-53
2024/01/06 09:13:32;;;;;;;;;3.00;3.00;;;;;7.66;77.55;101066.63;5052403;28;72825;-52
2024/01/06 09:15:57;;;;;;;;;6.00;4.00;;;;;7.70;77.25;101062.97;5033942;28;45415;-53
2024/01/06 09:18:22;;;;;;;;;5.00;5.00;;;;;7.75;77.37;101059.22;5036344;28;69744;-51
2024/01/06 09:20:48;;;;;;;;;5.00;4.00;;;;;7.86;77.20;101066.84;5035208;28;47131;-52
2024/01/06 09:23:13;;;;;;;;;4.00;3.00;;;;;8.01;76.37;101062.78;5026983;28;62429;-52
2024/01/06 09:25:39;;;;;;;;;3.00;3.00;;;;;8.20;75.54;101073.59;5037874;28;45839;-50
2024/01/06 09:28:05;;;;;;;;;4.33;3.33;;;;;8.37;74.86;101075.63;5017693;28;45369;-54
2024/01/06 09:30:30;;;;;;;;;4.67;3.00;;;;;8.49;75.33;101074.34;5017420;28;47690;-53
2024/01/06 09:32:56;;;;;;;;;2.00;2.00;;;;;8.57;74.67;101071.41;5026332;28;65035;-53
2024/01/06 09:35:21;;;;;;;;;4.00;4.00;;;;;8.63;74.49;101080.91;5024596;28;45328;-54
2024/01/06 09:37:46;;;;;;;;;4.00;4.00;;;;;8.68;74.91;101079.84;5036713;28;47516;-53
2024/01/06 09:40:15;;;;;;;;;9.00;5.00;;;;;8.72;73.56;101081.44;5035854;28;75419;-54
2024/01/06 09:42:41;;;;;;;;;6.33;5.33;;;;;8.78;72.75;101083.00;5031030;28;45232;-52
2024/01/06 09:45:07;;;;;;;;;3.67;3.33;;;;;8.82;73.14;101097.00;5034723;28;45685;-52
2024/01/06 09:47:34;;;;;;;;;4.00;4.00;;;;;8.86;72.70;101090.66;5020940;28;45435;-51
2024/01/06 09:50:01;;;;;;;;;1.00;0.00;;;;;8.86;72.67;101093.31;5037406;28;45492;-52
2024/01/06 09:52:28;;;;;;;;;4.00;3.00;;;;;8.87;71.62;101098.56;5030963;28;45289;-56
2024/01/06 09:54:54;;;;;;;;;3.00;3.00;;;;;8.92;72.39;101096.59;5039282;28;68237;-53
2024/01/06 09:57:23;;;;;;;;;2.00;2.00;;;;;8.95;71.81;101100.91;5039345;28;45368;-53
2024/01/06 09:59:48;;;;;;;;;3.00;3.00;;;;;8.97;72.26;101099.09;5067662;28;46311;-55
2024/01/06 10:02:15;;;;;;;;;4.00;3.00;;;;;8.96;71.81;101094.69;5056451;28;45254;-54
2024/01/06 10:04:41;;;;;;;;;2.33;2.33;;;;;8.97;71.28;101093.78;5063343;28;45332;-52
2024/01/06 10:07:06;;;;;;;;;3.67;2.00;;;;;8.96;70.32;101096.47;5038573;28;45744;-54
2024/01/06 10:09:31;;;;;;;;;5.33;4.00;;;;;8.99;71.54;101105.19;5067196;28;48380;-54
2024/01/06 10:11:58;;;;;;;;;2.67;2.67;;;;;9.02;71.14;101102.44;5074735;28;71159;-54
2024/01/06 10:14:24;;;;;;;;;4.00;2.67;;;;;9.03;70.27;101103.28;5081024;28;45435;-53
2024/01/06 10:16:50;;;;;;;;;2.67;2.00;;;;;9.05;70.62;101107.59;5080125;28;45423;-54
2024/01/06 10:19:16;;;;;;;;;5.00;4.00;;;;;9.09;70.88;101109.22;5080474;28;46240;-55
2024/01/06 10:21:41;;;;;;;;;3.33;3.33;;;;;9.13;70.58;101109.09;5070292;28;71699;-53
2024/01/06 10:24:10;;;;;;;;;2.00;2.00;;;;;9.16;71.14;101117.78;5058828;28;69609;-51
2024/01/06 10:26:35;;;;;;;;;2.33;2.33;;;;;9.16;71.03;101108.97;5080632;28;45433;-54
2024/01/06 10:29:01;;;;;;;;;4.67;3.33;;;;;9.14;70.62;101111.69;5056783;28;46644;-54
2024/01/06 10:31:26;;;;;;;;;3.00;3.00;;;;;9.13;70.48;101109.97;5071528;28;60525;-52
2024/01/06 10:33:52;;;;;;;;;1.67;1.67;;;;;9.13;69.92;101119.72;5045100;28;45454;-53
2024/01/06 10:36:17;;;;;;;;;4.00;3.00;;;;;9.12;70.04;101116.19;5080388;28;45451;-53
2024/01/06 10:38:44;;;;;;;;;3.67;3.67;;;;;9.07;70.04;101119.03;5074733;28;45502;-53
2024/01/06 10:41:11;;;;;;;;;1.67;1.67;;;;;9.01;69.69;101118.38;5059666;28;45431;-54
2024/01/06 10:43:41;;;;;;;;;5.00;3.00;;;;;9.01;70.16;101121.91;5079834;28;45458;-54
2024/01/06 10:46:10;;;;;;;;;2.00;2.00;;;;;9.02;69.05;101115.69;5080233;28;45450;-53
2024/01/06 10:48:38;;;;;;;;;1.00;1.00;;;;;9.01;69.25;101121.91;5080147;28;45422;-53
2024/01/06 10:51:07;;;;;;;;;3.00;3.00;;;;;9.03;69.39;101120.06;5075212;28;45429;-52
2024/01/06 10:53:33;;;;;;;;;1.00;1.00;;;;;9.08;68.88;101117.25;5072429;28;45433;-54
2024/01/06 10:55:59;;;;;;;;;2.67;2.67;;;;;9.14;69.52;101124.09;5073606;28;45383;-54
2024/01/06 10:58:24;;;;;;;;;3.00;3.00;;;;;9.16;68.03;101119.59;5078585;28;75486;-53
2024/01/06 11:00:51;;;;;;;;;1.00;1.00;;;;;9.20;68.70;101119.41;5051950;28;45450;-51
2024/01/06 11:03:17;;;;;;;;;6.00;3.00;;;;;9.27;69.07;101122.72;5060266;28;68085;-54
2024/01/06 11:05:43;;;;;;;;;3.00;3.00;;;;;9.35;67.59;101119.75;5073729;28;45327;-53
2024/01/06 11:08:10;;;;;;;;;5.00;2.00;;;;;9.44;67.93;101117.56;5050566;28;46229;-53
2024/01/06 11:10:36;;;;;;;;;4.00;3.00;;;;;9.57;67.74;101114.44;5061087;28;45352;-54
2024/01/06 11:13:20;;;;;;;;;3.00;3.00;;;;;9.66;68.08;101118.47;5079349;28;45458;-51
2024/01/06 11:15:48;;;;;;;;;2.33;2.00;;;;;9.71;67.93;101120.03;5047251;28;45539;-53
2024/01/06 11:18:37;;;;;;;;;4.00;2.00;;;;;9.71;66.75;101113.84;5058818;28;45856;-53